Surprise, AZ (85374)

12:41 AM MST on July 24, 2016 (GMT -0700)
Kingswood Parke | | Change Station

Elev 1227 ft 33.64 °N, 112.37 °W | Updated 45 seconds ago

Clear
Clear
96.3 °F
Feels Like 97 °F
N
0.0
Wind Variable Wind from SE
Gusts 0.7 mph

Today
High -- | Low -- °F
--% Chance of Precip.
Yesterday
High -- | Low -- °F
Precip. -- in
Pressure 29.70 in
Visibility 10.0 miles
Clouds Clear
Heat Index 97 °F
Dew Point 62 °F
Humidity 32%
Rainfall 0.00 in
Snow Depth Not available.
5:36 AM 7:35 PM
Waning Gibbous, 78% visible
METAR KLUF 240658Z AUTO 22013KT 10SM CLR 36/13 A2975 RMK AO2 SLP057 T03630133 404400313 $
Pressure 29.70 in
Visibility 10.0 miles
Clouds Clear
Heat Index 97 °F
Dew Point 62 °F
Humidity 32%
Rainfall 0.00 in
Snow Depth Not available.
5:36 AM 7:35 PM
Waning Gibbous, 78% visible
METAR KLUF 240658Z AUTO 22013KT 10SM CLR 36/13 A2975 RMK AO2 SLP057 T03630133 404400313 $

10-Day Weather Forecast

Almanac

Astronomy

Jul. 24, 2016 Rise Set
Actual Time
Civil Twilight
Nautical Twilight
Astronomical Twilight
Moon
Length of Visible Light
Length of Day
Tomorrow will be .
, % of the Moon is Illuminated

Today's Extremes

State Highs State Lows

Community

WunderPhotos

Upload Photos

1,927,041 photos uploaded!

WunderBlog® & News

Nearby

Air Quality

  Air Quality AQ Index Pollutant
Not available.

Snow Depth

Station Depth Elevation

Earthquake Activity

City Distance Mag. Time & Date
Minimum magnitude displayed is 2.5.

Coastal Water Temperatures

Place Temperature

Stations

Nearby Weather Stations

Station Location Temp. Windchill Dew Point Humidity Wind Precip. Elev Updated Type
                   

Watches & Warnings

There are currently no watches in effect.